DW6196 Weather Reports


Display with metric or nautical units.
time (UTC)temp
F
wind
direction
speed
MPH
gust
MPH
rain 1hr
in
rain 24hr
in
rain mn
in
humidity
%
barometer
mb
20200401120114 46 17 0.0 0.0 0.00 0.57 0.00 89 1012.8
20200401113059 47 17 0.0 0.0 0.00 0.57 0.00 86 1012.2
20200401110108 48 17 0.0 0.0 0.00 0.57 0.00 84 1011.7
20200401104502 49 17 0.0 4.0 0.00 0.57 0.00 83 1011.4
20200401103229 49 355 0.0 4.0 0.00 0.57 0.00 83 1011.2
20200401101510 49 47 0.0 5.0 0.00 0.57 0.00 82 1011.1
20200401100137 49 344 0.0 3.0 0.00 0.57 0.00 82 1011.0
20200401094526 50 328 1.0 6.0 0.00 0.57 0.00 81 1010.8
20200401093308 50 336 0.0 6.0 0.00 0.57 0.00 81 1010.7
20200401091524 50 344 2.0 5.0 0.00 0.57 0.00 81 1010.5
20200401090139 50 330 2.0 8.0 0.00 0.57 0.00 81 1010.4
20200401084539 51 340 1.0 8.0 0.00 0.57 0.00 80 1010.5
20200401083205 51 17 0.0 7.0 0.00 0.57 0.00 80 1010.4
20200401081610 51 344 1.0 6.0 0.00 0.57 0.00 79 1010.2
20200401074614 51 346 2.0 8.0 0.00 0.57 0.00 78 1010.4
20200401071646 52 340 1.0 6.0 0.00 0.57 0.00 77 1010.2
20200401064617 52 78 0.0 6.0 0.00 0.57 0.00 76 1010.1
20200401061610 53 333 0.0 7.0 0.00 0.57 0.00 74 1010.1
20200401054603 54 360 1.0 8.0 0.00 0.57 0.00 72 1010.1
20200401051718 55 62 1.0 9.0 0.00 0.57 0.00 69 1010.4
20200401050024 55 35 1.0 9.0 0.00 0.57 0.57 67 1010.4
20200401044630 56 342 0.0 8.0 0.00 0.57 0.57 66 1010.2
20200401043014 56 51 3.0 11.0 0.00 0.57 0.57 64 1010.1
20200401041611 57 360 4.0 13.0 0.00 0.57 0.57 64 1010.0
20200401040021 58 340 3.0 15.0 0.00 0.57 0.57 64 1009.8
20200401034722 58 313 1.0 8.0 0.00 0.57 0.57 65 1009.8
20200401033052 59 348 2.0 13.0 0.00 0.57 0.57 64 1009.6
20200401031649 59 5 1.0 10.0 0.00 0.57 0.57 66 1009.3
20200401030028 59 325 1.0 20.0 0.00 0.57 0.57 66 1009.0
20200401023106 61 338 2.0 10.0 0.00 0.57 0.57 66 1008.3
20200401020041 63 337 1.0 14.0 0.00 0.57 0.57 67 1007.9
20200401013113 65 319 2.0 11.0 0.00 0.57 0.57 66 1007.1
20200401011511 66 324 1.0 8.0 0.00 0.57 0.57 65 1006.7
20200401010204 66 319 1.0 10.0 0.00 0.57 0.57 65 1006.3
20200401004535 67 290 2.0 11.0 0.00 0.57 0.57 63 1006.0
20200401003104 70 267 3.0 11.0 0.00 0.57 0.57 59 1005.8
20200401001531 71 348 3.0 15.0 0.00 0.57 0.57 56 1005.2
20200401000122 72 305 1.0 15.0 0.00 0.57 0.57 56 1004.9
20200331234543 73 336 1.0 11.0 0.00 0.57 0.57 56 1004.6
20200331233141 74 254 0.0 7.0 0.00 0.57 0.57 55 1004.3
20200331231550 75 334 0.0 11.0 0.00 0.57 0.57 52 1004.0
20200331224541 78 309 1.0 7.0 0.00 0.57 0.57 49 1003.6
20200331221601 80 346 1.0 7.0 0.00 0.57 0.57 43 1003.2
20200331220011 80 294 3.0 11.0 0.00 0.57 0.57 40 1003.2
20200331214541 80 5 1.0 11.0 0.00 0.57 0.57 52 1002.9
20200331213014 81 306 2.0 6.0 0.00 0.57 0.57 57 1002.8
20200331211606 80 169 2.0 7.0 0.00 0.57 0.57 58 1002.7
20200331210005 80 333 1.0 6.0 0.00 0.57 0.57 64 1002.7
20200331204603 78 224 0.0 8.0 0.00 0.57 0.57 70 1002.8
20200331203010 77 155 2.0 7.0 0.00 0.57 0.57 69 1002.7
20200331201553 76 268 2.0 10.0 0.00 0.57 0.57 72 1002.9
20200331200023 75 342 0.0 4.0 0.00 0.57 0.57 78 1003.2
20200331194701 73 223 1.0 6.0 0.00 0.57 0.57 90 1003.4
20200331193114 72 194 0.0 2.0 0.00 0.57 0.57 95 1003.7
20200331191748 70 284 0.0 2.0 0.05 0.57 0.57 96 1003.8
20200331190035 68 265 0.0 0.0 0.14 0.57 0.57 95 1004.1
20200331184756 67 265 0.0 0.0 0.23 0.57 0.57 94 1004.3
20200331183027 67 265 0.0 1.0 0.57 0.57 0.57 94 1004.8
20200331180103 68 95 0.0 2.0 0.44 0.44 0.44 92 1004.9
20200331173117 79 224 0.0 6.0 0.00 0.00 0.00 78 1003.9
20200331171514 81 240 2.0 9.0 0.00 0.00 0.00 77 1004.1
20200331170115 80 218 1.0 7.0 0.00 0.00 0.00 78 1004.1
20200331164536 80 219 2.0 7.0 0.00 0.00 0.00 78 1004.0
20200331163126 79 180 1.0 8.0 0.00 0.00 0.00 79 1004.6
20200331161513 79 101 1.0 8.0 0.00 0.00 0.00 80 1004.7
20200331160122 78 201 1.0 7.0 0.00 0.00 0.00 82 1004.9
20200331154518 78 146 1.0 6.0 0.00 0.00 0.00 83 1005.1
20200331153126 78 5 1.0 8.0 0.00 0.00 0.00 81 1005.6
20200331151528 78 144 1.0 7.0 0.00 0.00 0.00 82 1005.3
20200331150305 77 76 0.0 5.0 0.00 0.00 0.00 77 1005.6
20200331144548 77 173 0.0 7.0 0.00 0.00 0.00 84 1005.6
20200331141625 77 151 0.0 4.0 0.00 0.00 0.00 85 1005.9
20200331134603 77 164 0.0 2.0 0.00 0.00 0.00 85 1006.5
20200331131616 76 152 0.0 5.0 0.00 0.00 0.00 85 1006.6
20200331130001 76 90 0.0 3.0 0.00 0.00 0.00 86 1006.6
20200331124604 76 134 0.0 4.0 0.00 0.00 0.00 86 1006.8
20200331123023 75 184 0.0 5.0 0.00 0.00 0.00 87 1007.1
20200331121648 75 220 0.0 2.0 0.00 0.00 0.00 87 1007.3